Time;durP1;ratioP1;P1;durP2;ratioP2;P2;SDS_P1;SDS_P2;PMS_P1;PMS_P2;Temp;Humidity;BMP_temperature;BMP_pressure;BME280_temperature;BME280_humidity;BME280_pressure;Samples;Min_cycle;Max_cycle;Signal;HPM_P1;HPM_P2
2023/01/23 00:02:20;;;;;;;12.20;8.33;;;-0.10;99.90;;;;;;5010430;28;20581;-52
2023/01/23 00:04:49;;;;;;;11.60;9.40;;;0.00;99.90;;;;;;4996681;28;20205;-51
2023/01/23 00:07:18;;;;;;;11.93;7.87;;;-0.10;99.90;;;;;;5002950;28;20219;-51
2023/01/23 00:09:45;;;;;;;9.37;7.03;;;-0.10;99.90;;;;;;4998827;28;20201;-52
2023/01/23 00:12:13;;;;;;;11.63;8.27;;;-0.10;99.90;;;;;;5002759;28;21451;-51
2023/01/23 00:14:40;;;;;;;9.53;7.63;;;-0.10;99.90;;;;;;5007821;28;20736;-51
2023/01/23 00:17:07;;;;;;;8.50;6.47;;;-0.10;99.90;;;;;;5001252;28;20221;-51
2023/01/23 00:19:34;;;;;;;11.27;7.23;;;-0.10;99.90;;;;;;5000434;28;20226;-51
2023/01/23 00:22:01;;;;;;;10.83;7.43;;;-0.20;99.90;;;;;;5002624;28;20203;-51
2023/01/23 00:24:28;;;;;;;10.73;7.27;;;-0.20;99.90;;;;;;4998956;28;20237;-51
2023/01/23 00:26:56;;;;;;;10.30;7.67;;;-0.20;99.90;;;;;;5001832;28;20224;-53
2023/01/23 00:29:24;;;;;;;11.30;7.07;;;-0.20;99.90;;;;;;5004268;28;20220;-52
2023/01/23 00:31:51;;;;;;;9.70;7.20;;;-0.20;99.90;;;;;;5008669;28;20265;-53
2023/01/23 00:34:18;;;;;;;8.73;5.73;;;-0.20;99.90;;;;;;5006667;28;20233;-51
2023/01/23 00:36:45;;;;;;;10.13;7.67;;;-0.20;99.90;;;;;;4994657;28;20220;-53
2023/01/23 00:39:16;;;;;;;10.87;8.17;;;-0.20;99.90;;;;;;5000586;28;20640;-51
2023/01/23 00:41:43;;;;;;;13.50;8.90;;;-0.20;99.90;;;;;;5005011;28;20207;-50
2023/01/23 00:44:10;;;;;;;9.50;7.63;;;-0.20;99.90;;;;;;4995563;28;20575;-49
2023/01/23 00:46:38;;;;;;;9.53;7.40;;;-0.10;99.90;;;;;;5006439;28;20271;-51
2023/01/23 00:49:06;;;;;;;9.80;7.30;;;-0.20;99.90;;;;;;4999520;28;20678;-51
2023/01/23 00:51:33;;;;;;;9.90;7.60;;;-0.10;99.90;;;;;;5001117;28;20658;-51
2023/01/23 00:54:00;;;;;;;13.07;9.47;;;-0.10;99.90;;;;;;5008717;28;20700;-49
2023/01/23 00:56:27;;;;;;;13.70;9.33;;;-0.10;99.90;;;;;;5009107;28;20313;-53
2023/01/23 00:58:55;;;;;;;13.90;9.97;;;-0.10;99.90;;;;;;5005934;28;20204;-51
2023/01/23 01:01:22;;;;;;;14.80;10.37;;;-0.10;99.90;;;;;;5009305;28;20223;-51
2023/01/23 01:03:51;;;;;;;13.10;8.03;;;-0.10;99.90;;;;;;5001150;28;20270;-52
2023/01/23 01:06:18;;;;;;;12.90;8.50;;;-0.10;99.90;;;;;;5002619;28;20270;-50
2023/01/23 01:08:45;;;;;;;10.90;8.43;;;-0.20;99.90;;;;;;4999873;28;20210;-51
2023/01/23 01:11:12;;;;;;;14.67;10.13;;;-0.10;99.90;;;;;;5005338;28;20275;-49
2023/01/23 01:13:39;;;;;;;12.43;8.67;;;-0.10;99.90;;;;;;5006372;28;20263;-48
2023/01/23 01:16:07;;;;;;;13.30;9.83;;;-0.10;99.90;;;;;;4999064;28;20259;-48
2023/01/23 01:18:34;;;;;;;12.93;8.40;;;-0.20;99.90;;;;;;5001186;28;20213;-48
2023/01/23 01:21:06;;;;;;;14.03;9.33;;;-0.30;99.90;;;;;;5002479;28;20213;-48
2023/01/23 01:23:33;;;;;;;13.90;8.23;;;-0.40;99.90;;;;;;5014129;28;20247;-48
2023/01/23 01:26:01;;;;;;;12.37;8.00;;;-0.40;99.90;;;;;;5021742;28;20285;-49
2023/01/23 01:28:29;;;;;;;13.57;8.07;;;-0.40;99.90;;;;;;5010626;28;20228;-49
2023/01/23 01:30:56;;;;;;;14.33;8.67;;;-0.30;99.90;;;;;;5002940;28;20650;-50
2023/01/23 01:33:24;;;;;;;12.43;7.57;;;-0.30;99.90;;;;;;5001186;28;20224;-48
2023/01/23 01:35:51;;;;;;;12.73;9.23;;;-0.30;99.90;;;;;;4999279;28;20260;-48
2023/01/23 01:38:19;;;;;;;11.73;8.07;;;-0.30;99.90;;;;;;4994810;28;20725;-49
2023/01/23 01:40:46;;;;;;;11.73;8.70;;;-0.40;99.90;;;;;;4999480;28;20650;-48
2023/01/23 01:43:19;;;;;;;15.67;9.70;;;-0.50;99.90;;;;;;5002660;28;20252;-48
2023/01/23 01:46:08;;;;;;;14.47;8.93;;;-0.50;99.90;;;;;;5005346;28;20221;-46
2023/01/23 01:48:38;;;;;;;11.67;8.20;;;-0.50;99.90;;;;;;5009995;28;20674;-48
2023/01/23 01:51:09;;;;;;;15.03;10.77;;;-0.50;99.90;;;;;;5006659;28;20616;-48
2023/01/23 01:53:38;;;;;;;13.37;8.93;;;-0.40;99.90;;;;;;5003534;28;20200;-47
2023/01/23 01:56:07;;;;;;;16.23;9.40;;;-0.40;99.90;;;;;;5001408;28;20728;-48
2023/01/23 01:58:34;;;;;;;12.90;8.80;;;-0.40;99.90;;;;;;5002060;28;20226;-47
2023/01/23 02:01:01;;;;;;;13.87;9.37;;;-0.40;99.90;;;;;;5001549;28;20218;-47
2023/01/23 02:03:28;;;;;;;13.53;8.67;;;-0.40;99.90;;;;;;4994277;28;20264;-48
2023/01/23 02:05:55;;;;;;;16.60;10.07;;;-0.50;99.90;;;;;;5004543;28;20291;-49
2023/01/23 02:08:27;;;;;;;16.37;10.37;;;-0.50;99.90;;;;;;5008410;28;20259;-48
2023/01/23 02:10:55;;;;;;;13.67;9.60;;;-0.50;99.90;;;;;;5008133;28;20192;-47
2023/01/23 02:13:29;;;;;;;16.73;10.47;;;-0.60;99.90;;;;;;4999337;28;20644;-51
2023/01/23 02:15:57;;;;;;;17.67;11.03;;;-0.70;99.90;;;;;;5001595;28;20327;-48
2023/01/23 02:18:25;;;;;;;17.57;11.27;;;-0.70;99.90;;;;;;4999983;28;20287;-48
2023/01/23 02:20:54;;;;;;;16.03;10.83;;;-0.70;99.90;;;;;;5007702;28;20217;-48
2023/01/23 02:23:32;;;;;;;17.00;10.60;;;-0.80;99.90;;;;;;5006561;28;20629;-48
2023/01/23 02:26:04;;;;;;;15.57;10.53;;;-0.90;99.90;;;;;;4997487;28;20275;-48
2023/01/23 02:28:42;;;;;;;19.03;10.83;;;-0.90;99.90;;;;;;5003528;28;20203;-52
2023/01/23 02:31:10;;;;;;;18.97;11.20;;;-0.90;99.90;;;;;;5012531;28;20701;-48
2023/01/23 02:33:52;;;;;;;18.60;11.43;;;-0.90;99.90;;;;;;5008006;28;20259;-50
2023/01/23 02:36:21;;;;;;;19.30;12.07;;;-0.90;99.90;;;;;;5011188;28;20224;-48
2023/01/23 02:38:54;;;;;;;24.33;12.60;;;-0.90;99.90;;;;;;5011196;28;20203;-48
2023/01/23 02:41:27;;;;;;;17.47;10.67;;;-1.00;99.90;;;;;;5005907;28;20224;-49
2023/01/23 02:43:56;;;;;;;20.03;11.53;;;-1.00;99.90;;;;;;5000239;28;20259;-48
2023/01/23 02:46:24;;;;;;;20.63;11.97;;;-1.00;99.90;;;;;;5008313;28;20229;-48
2023/01/23 02:48:51;;;;;;;22.23;12.13;;;-0.90;99.90;;;;;;5012585;28;20205;-47
2023/01/23 02:51:19;;;;;;;19.70;10.90;;;-0.90;99.90;;;;;;5012924;28;20199;-48
2023/01/23 02:53:46;;;;;;;21.90;12.90;;;-0.90;99.90;;;;;;5010510;28;20290;-48
2023/01/23 02:56:14;;;;;;;23.57;12.47;;;-1.10;99.90;;;;;;5010483;28;20229;-49
2023/01/23 03:01:27;;;;;;;19.40;11.33;;;-1.10;99.90;;;;;;5003818;28;20236;-48
2023/01/23 03:03:55;;;;;;;20.70;12.43;;;-1.00;99.90;;;;;;5001182;28;20211;-49
2023/01/23 03:06:23;;;;;;;21.63;12.53;;;-1.10;99.90;;;;;;4992890;28;20224;-48
2023/01/23 03:08:50;;;;;;;21.93;12.57;;;-1.10;99.90;;;;;;5002533;28;20259;-49
2023/01/23 03:11:18;;;;;;;19.77;12.90;;;-1.10;99.90;;;;;;5006195;28;20270;-48
2023/01/23 03:13:47;;;;;;;23.87;12.63;;;-1.00;99.90;;;;;;5012258;28;20260;-48
2023/01/23 03:16:15;;;;;;;20.70;12.93;;;-0.90;99.90;;;;;;5005695;28;20232;-49
2023/01/23 03:18:42;;;;;;;17.70;10.97;;;-0.80;99.90;;;;;;5006152;28;20205;-49
2023/01/23 03:21:09;;;;;;;19.67;12.00;;;-0.80;99.90;;;;;;5011992;28;20217;-49
2023/01/23 03:23:40;;;;;;;22.20;12.03;;;-0.70;99.90;;;;;;5012155;28;20255;-48
2023/01/23 03:26:07;;;;;;;21.50;11.83;;;-0.70;99.90;;;;;;5004953;28;20311;-48
2023/01/23 03:31:20;;;;;;;19.47;12.03;;;-1.00;99.90;;;;;;5006204;28;20210;-48
2023/01/23 03:33:47;;;;;;;22.90;13.03;;;-1.00;99.90;;;;;;5008138;28;20204;-49
2023/01/23 03:36:14;;;;;;;21.00;12.40;;;-1.00;99.90;;;;;;4997833;28;20634;-50
2023/01/23 03:41:23;;;;;;;19.30;11.77;;;-1.10;99.90;;;;;;4992285;28;20639;-47
2023/01/23 03:41:28;;;;;;;16.50;11.67;;;-1.10;99.90;;;;;;4992134;28;20227;-48
2023/01/23 03:43:56;;;;;;;22.33;11.77;;;-1.10;99.90;;;;;;4996935;28;20198;-48
2023/01/23 03:46:24;;;;;;;20.53;12.17;;;-1.10;99.90;;;;;;5006102;28;20650;-49
2023/01/23 03:48:51;;;;;;;21.10;11.93;;;-1.10;99.90;;;;;;5008724;28;20260;-49
2023/01/23 03:51:18;;;;;;;18.40;11.37;;;-1.20;99.90;;;;;;5007633;28;20680;-48
2023/01/23 03:53:45;;;;;;;19.60;11.57;;;-1.10;99.90;;;;;;5001499;28;20303;-49
2023/01/23 03:56:12;;;;;;;18.87;11.93;;;-1.00;99.90;;;;;;5034624;22;20223;-49
2023/01/23 03:58:39;;;;;;;20.70;11.73;;;-1.00;99.90;;;;;;5031295;28;20274;-49
2023/01/23 04:01:08;;;;;;;20.53;12.17;;;-1.00;99.90;;;;;;5029764;28;20226;-47
2023/01/23 04:03:36;;;;;;;23.03;12.73;;;-1.00;99.90;;;;;;5029455;28;20227;-48
2023/01/23 04:06:03;;;;;;;18.63;12.30;;;-0.90;99.90;;;;;;5024806;28;21245;-49
2023/01/23 04:08:30;;;;;;;20.90;12.00;;;-0.90;99.90;;;;;;5029499;28;20257;-47
2023/01/23 04:11:05;;;;;;;18.80;10.90;;;-0.80;99.90;;;;;;5011876;28;20250;-47
2023/01/23 04:13:32;;;;;;;16.07;10.77;;;-0.80;99.90;;;;;;5018580;28;20246;-47
2023/01/23 04:16:00;;;;;;;18.80;12.07;;;-0.90;99.90;;;;;;5011988;28;20224;-49
2023/01/23 04:18:27;;;;;;;19.60;11.30;;;-0.90;99.90;;;;;;5028165;28;20290;-47
2023/01/23 04:20:56;;;;;;;18.87;12.50;;;-0.90;99.90;;;;;;5025622;28;20385;-47
2023/01/23 04:23:23;;;;;;;18.83;11.17;;;-1.00;99.90;;;;;;5031982;28;20196;-47
2023/01/23 04:25:50;;;;;;;18.83;12.13;;;-1.00;99.90;;;;;;5030837;28;20224;-47
2023/01/23 04:28:18;;;;;;;18.60;11.73;;;-0.90;99.90;;;;;;5026693;28;20568;-47
2023/01/23 04:30:45;;;;;;;20.87;11.27;;;-1.00;99.90;;;;;;5027333;28;20195;-47
2023/01/23 04:33:13;;;;;;;15.47;10.27;;;-1.10;99.90;;;;;;5031895;28;20197;-47
2023/01/23 04:35:40;;;;;;;17.37;10.67;;;-1.00;99.90;;;;;;5031877;28;20254;-47
2023/01/23 04:38:08;;;;;;;16.50;10.37;;;-1.00;99.90;;;;;;5030135;28;20233;-47
2023/01/23 04:40:35;;;;;;;14.97;10.23;;;-0.90;99.90;;;;;;5021715;28;20211;-49
2023/01/23 04:43:02;;;;;;;17.93;11.40;;;-0.90;99.90;;;;;;5022942;28;20553;-47
2023/01/23 04:45:29;;;;;;;14.87;8.57;;;-0.80;99.90;;;;;;5031615;28;20666;-47
2023/01/23 04:47:56;;;;;;;14.67;10.13;;;-0.90;99.90;;;;;;5020771;28;20208;-47
2023/01/23 04:50:23;;;;;;;18.37;11.13;;;-0.90;99.90;;;;;;5030210;28;20260;-47
2023/01/23 04:52:50;;;;;;;16.13;10.80;;;-0.90;99.90;;;;;;5031478;28;20194;-47
2023/01/23 04:55:18;;;;;;;14.63;8.77;;;-0.90;99.90;;;;;;5031501;28;20570;-48
2023/01/23 04:57:45;;;;;;;17.87;11.67;;;-0.90;99.90;;;;;;5025751;28;20232;-47
2023/01/23 05:00:13;;;;;;;16.50;9.27;;;-0.90;99.90;;;;;;5031617;28;20611;-47
2023/01/23 05:02:40;;;;;;;15.93;9.30;;;-0.80;99.90;;;;;;5031864;28;20260;-47
2023/01/23 05:05:08;;;;;;;15.80;10.00;;;-0.70;99.90;;;;;;5029619;28;20203;-47
2023/01/23 05:07:35;;;;;;;15.87;9.63;;;-0.70;99.90;;;;;;5031764;28;20219;-47
2023/01/23 05:10:02;;;;;;;14.90;10.27;;;-0.90;99.90;;;;;;5031480;28;20202;-47
2023/01/23 05:12:31;;;;;;;16.10;10.20;;;-0.90;99.90;;;;;;5025963;28;20207;-47
2023/01/23 05:14:58;;;;;;;17.13;9.57;;;-1.00;99.90;;;;;;5023094;28;20203;-47
2023/01/23 05:17:25;;;;;;;15.07;10.20;;;-0.90;99.90;;;;;;5031425;28;20220;-47
2023/01/23 05:19:52;;;;;;;16.07;9.80;;;-1.00;99.90;;;;;;5028337;28;20246;-47
2023/01/23 05:22:19;;;;;;;20.37;10.90;;;-1.10;99.90;;;;;;5028859;28;20763;-47
2023/01/23 05:24:46;;;;;;;12.70;9.87;;;-1.00;99.90;;;;;;5024426;28;20263;-47
2023/01/23 05:27:17;;;;;;;13.73;9.10;;;-1.10;99.90;;;;;;5035274;28;20215;-47
2023/01/23 05:29:45;;;;;;;16.53;9.83;;;-1.00;99.90;;;;;;5032354;28;20253;-47
2023/01/23 05:32:12;;;;;;;19.23;10.23;;;-1.00;99.90;;;;;;5031051;28;20624;-47
2023/01/23 05:34:40;;;;;;;13.30;9.37;;;-1.00;99.90;;;;;;5031953;28;20263;-47
2023/01/23 05:37:07;;;;;;;16.03;10.53;;;-1.00;99.90;;;;;;5029739;28;20379;-48
2023/01/23 05:39:34;;;;;;;14.97;8.27;;;-0.90;99.90;;;;;;5031189;28;20204;-47
2023/01/23 05:42:02;;;;;;;14.37;9.00;;;-0.90;99.90;;;;;;5030808;28;20270;-47
2023/01/23 05:44:29;;;;;;;14.10;8.17;;;-0.90;99.90;;;;;;5023982;28;20204;-47
2023/01/23 05:46:57;;;;;;;13.73;8.90;;;-0.90;99.90;;;;;;5023103;28;20232;-48
2023/01/23 05:49:24;;;;;;;11.60;7.70;;;-0.90;99.90;;;;;;5014808;28;20208;-47
2023/01/23 05:51:51;;;;;;;13.67;8.17;;;-0.90;99.90;;;;;;5015168;28;20208;-47
2023/01/23 05:54:18;;;;;;;15.30;8.93;;;-0.90;99.90;;;;;;5015010;28;20199;-47
2023/01/23 05:56:45;;;;;;;13.67;8.53;;;-1.10;99.90;;;;;;5025574;28;20235;-47
2023/01/23 05:59:12;;;;;;;13.90;8.93;;;-1.00;99.90;;;;;;5034507;28;20253;-47
2023/01/23 06:01:39;;;;;;;11.13;8.10;;;-1.00;99.90;;;;;;5031587;28;20219;-47
2023/01/23 06:04:08;;;;;;;15.03;8.87;;;-1.00;99.90;;;;;;5033982;28;20203;-48
2023/01/23 06:06:34;;;;;;;13.23;9.80;;;-1.00;99.90;;;;;;5034656;28;20278;-47
2023/01/23 06:09:02;;;;;;;12.47;8.13;;;-1.00;99.90;;;;;;5034491;28;20216;-47
2023/01/23 06:11:29;;;;;;;12.77;8.37;;;-1.00;99.90;;;;;;5034024;28;20709;-46
2023/01/23 06:13:56;;;;;;;13.03;8.23;;;-1.00;99.90;;;;;;5021927;28;20209;-48
2023/01/23 06:16:23;;;;;;;13.23;8.00;;;-1.00;99.90;;;;;;5022624;28;20220;-48
2023/01/23 06:18:50;;;;;;;16.50;10.03;;;-1.00;99.90;;;;;;5026411;28;20282;-48
2023/01/23 06:21:18;;;;;;;12.17;7.73;;;-1.10;99.90;;;;;;5028625;28;20637;-47
2023/01/23 06:23:46;;;;;;;11.30;8.00;;;-1.00;99.90;;;;;;5034242;28;20207;-47
2023/01/23 06:26:13;;;;;;;12.67;8.10;;;-1.00;99.90;;;;;;5026127;28;20221;-47
2023/01/23 06:28:40;;;;;;;12.03;7.87;;;-1.00;99.90;;;;;;5026418;28;20200;-47
2023/01/23 06:31:09;;;;;;;13.47;7.73;;;-1.00;99.90;;;;;;5020561;28;20266;-47
2023/01/23 06:33:36;;;;;;;10.93;7.80;;;-1.10;99.90;;;;;;5018783;28;20572;-47
2023/01/23 06:36:05;;;;;;;13.67;8.07;;;-1.10;99.90;;;;;;5026927;28;20234;-48
2023/01/23 06:38:34;;;;;;;10.23;6.93;;;-1.10;99.90;;;;;;5017780;28;20214;-48
2023/01/23 06:41:01;;;;;;;13.63;7.93;;;-1.30;99.90;;;;;;5023226;28;20204;-47
2023/01/23 06:43:28;;;;;;;13.83;9.70;;;-1.10;99.90;;;;;;5033863;28;20210;-47
2023/01/23 06:45:55;;;;;;;13.77;9.20;;;-1.10;99.90;;;;;;5031280;28;20228;-47
2023/01/23 06:48:23;;;;;;;15.60;9.00;;;-1.20;99.90;;;;;;5025898;28;20292;-47
2023/01/23 06:50:50;;;;;;;14.63;9.10;;;-1.20;99.90;;;;;;5032462;28;20558;-47
2023/01/23 06:53:18;;;;;;;12.50;7.90;;;-1.30;99.90;;;;;;5030221;28;20627;-48
2023/01/23 06:55:46;;;;;;;9.37;7.17;;;-1.20;99.90;;;;;;5031228;28;20220;-47
2023/01/23 06:58:13;;;;;;;11.47;8.27;;;-1.30;99.90;;;;;;5021827;28;20720;-47
2023/01/23 07:00:43;;;;;;;13.33;7.27;;;-1.30;99.90;;;;;;5023503;28;20690;-47
2023/01/23 07:03:11;;;;;;;13.33;7.73;;;-1.30;99.90;;;;;;5024235;28;20229;-47
2023/01/23 07:05:39;;;;;;;14.17;8.37;;;-1.20;99.90;;;;;;5030978;28;20208;-47
2023/01/23 07:08:07;;;;;;;11.70;7.53;;;-1.10;99.90;;;;;;5026351;28;20585;-48
2023/01/23 07:10:36;;;;;;;16.40;9.67;;;-1.30;99.90;;;;;;5026365;28;20253;-46
2023/01/23 07:13:05;;;;;;;17.00;10.60;;;-1.20;99.90;;;;;;5022728;28;20224;-48
2023/01/23 07:15:32;;;;;;;15.17;9.13;;;-1.20;99.90;;;;;;5029586;28;20874;-47
2023/01/23 07:17:59;;;;;;;12.70;8.10;;;-1.20;99.90;;;;;;5031093;28;20203;-47
2023/01/23 07:20:27;;;;;;;12.33;7.77;;;-1.30;99.90;;;;;;5024585;28;20204;-46
2023/01/23 07:22:54;;;;;;;13.47;8.20;;;-1.30;99.90;;;;;;5022453;28;20690;-47
2023/01/23 07:25:21;;;;;;;12.97;8.40;;;-1.40;99.90;;;;;;5031591;28;20655;-47
2023/01/23 07:27:48;;;;;;;10.07;7.70;;;-1.30;99.90;;;;;;5032635;28;20227;-47
2023/01/23 07:30:18;;;;;;;11.10;6.90;;;-1.20;99.90;;;;;;5031324;28;20212;-47
2023/01/23 07:32:45;;;;;;;12.23;7.47;;;-1.30;99.90;;;;;;5033005;28;20581;-48
2023/01/23 07:35:12;;;;;;;13.27;8.13;;;-1.20;99.90;;;;;;5032898;28;20204;-47
2023/01/23 07:37:39;;;;;;;16.63;9.23;;;-1.20;99.90;;;;;;5030702;28;20276;-47
2023/01/23 07:40:07;;;;;;;16.13;8.30;;;-1.10;99.90;;;;;;5013539;28;20267;-48
2023/01/23 07:42:33;;;;;;;13.83;8.73;;;-1.20;99.90;;;;;;5032781;28;20647;-47
2023/01/23 07:45:00;;;;;;;15.47;9.03;;;-1.10;99.90;;;;;;5031790;28;20702;-46
2023/01/23 07:47:29;;;;;;;14.50;9.30;;;-1.20;99.90;;;;;;5032603;28;20716;-48
2023/01/23 07:49:56;;;;;;;13.20;9.17;;;-1.20;99.90;;;;;;5031526;28;20670;-47
2023/01/23 07:52:23;;;;;;;13.40;9.77;;;-1.10;99.90;;;;;;5028156;28;20264;-48
2023/01/23 07:54:50;;;;;;;17.17;9.13;;;-1.00;99.90;;;;;;5030870;28;20298;-48
2023/01/23 07:57:17;;;;;;;12.83;8.73;;;-0.90;99.90;;;;;;5032310;28;20789;-48
2023/01/23 07:59:43;;;;;;;14.23;9.40;;;-0.80;99.90;;;;;;5032408;28;20267;-47
2023/01/23 08:02:11;;;;;;;16.73;8.53;;;-0.60;99.90;;;;;;5026728;28;20215;-47
2023/01/23 08:04:39;;;;;;;10.97;7.93;;;-0.70;99.90;;;;;;5025938;28;20580;-48
2023/01/23 08:07:06;;;;;;;12.97;7.87;;;-0.90;99.90;;;;;;5013623;28;20227;-47
2023/01/23 08:09:33;;;;;;;12.80;8.47;;;-0.70;99.90;;;;;;5020397;28;20244;-47
2023/01/23 08:12:00;;;;;;;15.73;9.27;;;-0.60;99.90;;;;;;5030306;28;20204;-48
2023/01/23 08:14:27;;;;;;;15.43;9.93;;;-0.50;99.90;;;;;;5031874;28;20746;-47
2023/01/23 08:16:54;;;;;;;13.97;8.67;;;-0.40;99.90;;;;;;5031954;28;20271;-47
2023/01/23 08:19:24;;;;;;;14.07;8.57;;;-0.50;99.90;;;;;;5029966;28;20206;-54
2023/01/23 08:21:52;;;;;;;17.67;8.90;;;-0.60;99.90;;;;;;5023615;28;20235;-48
2023/01/23 08:24:20;;;;;;;14.67;9.07;;;-0.70;99.90;;;;;;5025158;28;20210;-47
2023/01/23 08:26:47;;;;;;;13.63;8.77;;;-0.80;99.90;;;;;;5019065;28;20453;-48
2023/01/23 08:29:14;;;;;;;12.27;8.03;;;-0.80;99.90;;;;;;5025024;28;20201;-47
2023/01/23 08:31:41;;;;;;;13.90;8.73;;;-0.80;99.90;;;;;;5022289;28;20566;-47
2023/01/23 08:34:08;;;;;;;13.90;8.47;;;-1.00;99.90;;;;;;5025144;28;20208;-47
2023/01/23 08:36:35;;;;;;;11.70;7.97;;;-0.90;99.90;;;;;;5024011;28;20232;-48
2023/01/23 08:39:03;;;;;;;17.07;9.77;;;-0.80;99.90;;;;;;5031682;28;20742;-47
2023/01/23 08:41:30;;;;;;;9.67;7.00;;;-0.90;99.90;;;;;;5028420;28;20214;-47
2023/01/23 08:44:00;;;;;;;17.37;10.47;;;-0.90;99.90;;;;;;5031753;28;20206;-47
2023/01/23 08:46:30;;;;;;;16.40;9.90;;;-0.70;99.90;;;;;;5019944;28;20650;-48
2023/01/23 08:48:57;;;;;;;28.67;13.93;;;-0.80;99.90;;;;;;5031205;28;20662;-48
2023/01/23 08:51:26;;;;;;;32.10;15.47;;;-0.70;99.90;;;;;;5031291;28;20601;-47
2023/01/23 08:53:53;;;;;;;17.97;10.40;;;-0.60;99.90;;;;;;5031672;28;20199;-47
2023/01/23 08:56:23;;;;;;;18.13;10.13;;;-0.50;99.90;;;;;;5026787;28;20237;-47
2023/01/23 08:58:51;;;;;;;14.40;9.47;;;-0.40;99.90;;;;;;5035442;28;20713;-47
2023/01/23 09:01:19;;;;;;;17.90;9.13;;;-0.30;99.90;;;;;;5035651;28;20215;-48
2023/01/23 09:03:46;;;;;;;15.00;9.53;;;-0.20;99.90;;;;;;5024332;28;20226;-47
2023/01/23 09:06:15;;;;;;;12.73;8.50;;;-0.20;99.90;;;;;;5025936;28;20222;-48
2023/01/23 09:08:42;;;;;;;16.33;9.70;;;0.00;99.90;;;;;;5035649;28;20569;-47
2023/01/23 09:11:10;;;;;;;14.50;8.77;;;0.20;99.90;;;;;;5035129;28;20210;-47
2023/01/23 09:13:39;;;;;;;15.07;9.67;;;0.40;99.90;;;;;;5035254;28;20246;-47
2023/01/23 09:16:08;;;;;;;16.37;10.47;;;0.50;99.90;;;;;;5028906;28;20284;-46
2023/01/23 09:18:35;;;;;;;16.27;9.20;;;0.40;99.90;;;;;;5035290;28;20203;-47
2023/01/23 09:21:07;;;;;;;15.40;9.73;;;0.50;99.90;;;;;;5021461;28;20207;-47
2023/01/23 09:23:34;;;;;;;20.83;12.33;;;0.60;99.90;;;;;;5015328;28;20677;-47
2023/01/23 09:26:06;;;;;;;17.27;11.03;;;0.50;99.90;;;;;;5026988;28;20220;-47
2023/01/23 09:28:33;;;;;;;14.83;9.40;;;0.60;99.90;;;;;;5035251;28;20197;-47
2023/01/23 09:31:06;;;;;;;11.97;8.10;;;0.50;99.90;;;;;;5023322;28;20223;-47
2023/01/23 09:33:33;;;;;;;13.23;7.20;;;0.70;99.90;;;;;;5027266;28;20215;-47
2023/01/23 09:36:00;;;;;;;10.40;7.50;;;0.70;99.90;;;;;;5027754;28;20223;-46
2023/01/23 09:38:27;;;;;;;14.37;8.30;;;0.90;99.90;;;;;;5029379;28;20215;-47
2023/01/23 09:40:56;;;;;;;15.20;7.90;;;0.70;99.90;;;;;;5034910;28;20208;-47
2023/01/23 09:43:26;;;;;;;13.93;8.97;;;0.70;99.90;;;;;;5034825;28;20216;-47
2023/01/23 09:46:01;;;;;;;23.00;14.43;;;0.80;99.90;;;;;;5029465;28;20214;-47
2023/01/23 09:48:33;;;;;;;13.30;8.47;;;0.90;99.90;;;;;;5033449;28;20286;-47
2023/01/23 09:51:05;;;;;;;15.20;9.27;;;1.00;99.90;;;;;;5022098;28;20261;-47
2023/01/23 09:53:37;;;;;;;16.47;9.60;;;1.00;99.90;;;;;;5030347;28;20205;-47
2023/01/23 09:56:14;;;;;;;14.37;9.13;;;1.00;99.90;;;;;;5045575;22;20263;-47
2023/01/23 09:58:47;;;;;;;11.43;8.37;;;1.00;99.90;;;;;;5033266;28;20676;-49
2023/01/23 10:01:14;;;;;;;14.80;10.00;;;0.70;99.90;;;;;;5029083;28;20199;-49
2023/01/23 10:03:42;;;;;;;12.63;9.50;;;0.80;99.90;;;;;;5032892;28;20284;-48
2023/01/23 10:06:20;;;;;;;16.87;10.50;;;0.90;99.90;;;;;;5029397;28;20265;-47
2023/01/23 10:09:08;;;;;;;15.00;8.63;;;0.90;99.90;;;;;;5030988;28;20302;-47
2023/01/23 10:11:45;;;;;;;18.07;11.60;;;1.00;99.90;;;;;;5033038;28;20203;-47
2023/01/23 10:14:38;;;;;;;13.90;9.97;;;1.10;99.90;;;;;;5033659;28;20207;-48
2023/01/23 10:17:21;;;;;;;15.37;10.13;;;1.20;99.90;;;;;;5022728;28;20314;-48
2023/01/23 10:20:16;;;;;;;13.43;9.33;;;1.30;99.90;;;;;;5017851;28;20212;-48
2023/01/23 10:22:51;;;;;;;15.10;9.40;;;1.40;99.90;;;;;;5019396;28;20219;-48
2023/01/23 10:25:22;;;;;;;16.50;10.83;;;1.40;99.90;;;;;;5021909;28;20295;-48
2023/01/23 10:27:51;;;;;;;14.50;9.13;;;1.50;99.90;;;;;;5024371;28;20226;-48
2023/01/23 10:30:24;;;;;;;14.53;9.43;;;1.60;99.90;;;;;;5024076;28;20199;-49
2023/01/23 10:32:55;;;;;;;14.00;9.07;;;1.60;99.90;;;;;;5022553;28;20212;-48
2023/01/23 10:35:30;;;;;;;13.00;9.37;;;1.60;99.90;;;;;;5030134;28;20212;-49
2023/01/23 10:38:02;;;;;;;16.07;10.73;;;1.40;99.90;;;;;;5029198;28;20709;-49
2023/01/23 10:43:15;;;;;;;12.77;9.23;;;1.50;99.90;;;;;;5021589;28;20228;-48
2023/01/23 10:45:43;;;;;;;14.83;9.60;;;1.20;99.90;;;;;;5026247;28;20269;-48
2023/01/23 10:48:40;;;;;;;20.30;10.50;;;1.30;99.90;;;;;;5029577;28;20217;-49
2023/01/23 10:51:30;;;;;;;19.87;10.90;;;1.30;99.90;;;;;;5022733;28;20286;-48
2023/01/23 10:54:02;;;;;;;11.07;9.53;;;1.40;99.90;;;;;;5027353;28;20202;-49
2023/01/23 10:56:30;;;;;;;16.27;9.60;;;1.50;99.90;;;;;;5024135;28;20235;-49
2023/01/23 10:59:00;;;;;;;14.60;9.13;;;1.50;99.90;;;;;;5029430;28;20204;-49
2023/01/23 11:01:30;;;;;;;15.17;11.10;;;1.50;99.90;;;;;;5028352;28;20266;-49
2023/01/23 11:03:57;;;;;;;15.20;10.10;;;1.50;99.90;;;;;;5017306;28;20575;-48
2023/01/23 11:06:25;;;;;;;15.17;10.00;;;1.50;99.90;;;;;;5025114;28;20227;-49
2023/01/23 11:08:57;;;;;;;16.43;10.40;;;1.60;99.90;;;;;;5024697;28;20280;-48
2023/01/23 11:11:26;;;;;;;18.10;12.00;;;1.70;99.90;;;;;;5032195;28;20655;-48
2023/01/23 11:14:07;;;;;;;16.20;10.90;;;1.80;99.90;;;;;;5025547;28;20200;-48
2023/01/23 11:16:35;;;;;;;13.17;9.80;;;1.80;99.90;;;;;;5032150;28;20728;-49
2023/01/23 11:19:17;;;;;;;17.27;10.80;;;1.70;99.90;;;;;;5027277;28;20206;-48
2023/01/23 11:21:54;;;;;;;14.70;9.60;;;1.90;99.90;;;;;;5027729;28;20213;-49
2023/01/23 11:24:34;;;;;;;12.87;9.00;;;2.10;99.90;;;;;;5023896;28;20239;-49
2023/01/23 11:27:05;;;;;;;15.40;10.07;;;2.30;99.90;;;;;;5015741;28;20222;-48
2023/01/23 11:30:00;;;;;;;12.50;9.77;;;2.30;99.90;;;;;;5028344;28;20245;-48
2023/01/23 11:32:31;;;;;;;12.70;8.40;;;2.40;99.90;;;;;;5020932;28;20337;-49
2023/01/23 11:35:11;;;;;;;14.20;9.67;;;2.40;99.90;;;;;;5019148;28;20258;-49
2023/01/23 11:37:40;;;;;;;15.20;10.07;;;2.80;99.90;;;;;;5018222;28;20288;-48
2023/01/23 11:40:13;;;;;;;13.83;10.33;;;3.10;99.90;;;;;;5019066;28;20257;-48
2023/01/23 11:42:42;;;;;;;15.33;10.27;;;3.00;99.90;;;;;;5024095;28;20234;-49
2023/01/23 11:45:14;;;;;;;15.10;10.77;;;3.00;99.90;;;;;;5031402;28;20200;-49
2023/01/23 11:48:00;;;;;;;16.53;9.83;;;3.30;99.90;;;;;;5030923;28;20314;-49
2023/01/23 11:50:40;;;;;;;13.13;9.77;;;3.50;99.90;;;;;;5032096;28;20266;-49
2023/01/23 11:53:19;;;;;;;16.07;10.03;;;3.70;99.90;;;;;;5023326;28;20192;-49
2023/01/23 11:56:06;;;;;;;13.93;9.17;;;3.60;99.90;;;;;;5031148;28;20215;-49
2023/01/23 11:58:55;;;;;;;11.93;9.93;;;3.60;99.90;;;;;;5031163;28;20294;-49
2023/01/23 12:01:29;;;;;;;13.83;10.17;;;3.40;99.90;;;;;;5029175;28;20204;-49
2023/01/23 12:04:23;;;;;;;14.87;9.83;;;3.30;99.90;;;;;;5030398;28;20643;-49
2023/01/23 12:07:22;;;;;;;14.00;10.23;;;3.20;99.90;;;;;;5002509;28;20224;-49
2023/01/23 12:10:03;;;;;;;16.10;10.53;;;3.00;99.90;;;;;;5026135;28;20287;-49
2023/01/23 12:12:50;;;;;;;14.53;10.37;;;2.80;99.90;;;;;;5016512;28;20258;-48
2023/01/23 12:15:31;;;;;;;14.50;10.70;;;2.60;99.90;;;;;;5025922;28;20196;-49
2023/01/23 12:18:06;;;;;;;14.90;10.23;;;2.60;99.90;;;;;;5030085;28;20220;-49
2023/01/23 12:20:41;;;;;;;12.07;8.90;;;2.60;99.90;;;;;;5031040;28;20203;-50
2023/01/23 12:23:22;;;;;;;15.63;9.80;;;2.40;99.90;;;;;;5024884;28;20214;-48
2023/01/23 12:25:59;;;;;;;16.40;11.10;;;2.40;99.90;;;;;;5031260;28;20199;-49
2023/01/23 12:28:45;;;;;;;13.97;9.23;;;2.30;99.90;;;;;;5024632;28;20656;-51
2023/01/23 12:31:26;;;;;;;14.00;10.00;;;2.10;99.90;;;;;;5021002;28;20206;-50
2023/01/23 12:34:13;;;;;;;14.90;10.93;;;2.10;99.90;;;;;;5028732;28;20208;-50
2023/01/23 12:36:51;;;;;;;16.20;10.13;;;1.90;99.90;;;;;;5019555;28;20269;-48
2023/01/23 12:39:35;;;;;;;16.37;10.60;;;2.00;99.90;;;;;;5028567;28;20203;-48
2023/01/23 12:42:08;;;;;;;15.30;10.10;;;1.90;99.90;;;;;;5019254;28;20211;-48
2023/01/23 12:44:42;;;;;;;12.23;8.90;;;1.80;99.90;;;;;;5030870;28;20281;-48
2023/01/23 12:47:16;;;;;;;15.20;10.47;;;1.70;99.90;;;;;;5030861;28;20226;-48
2023/01/23 12:49:47;;;;;;;13.33;9.67;;;1.60;99.90;;;;;;5023503;28;20196;-48
2023/01/23 12:52:22;;;;;;;19.87;9.70;;;1.80;99.90;;;;;;5023620;28;20201;-48
2023/01/23 12:54:59;;;;;;;15.23;9.70;;;1.90;99.90;;;;;;5030192;28;20206;-48
2023/01/23 13:00:22;;;;;;;14.53;10.43;;;1.80;99.90;;;;;;5021835;28;20726;-48
2023/01/23 13:03:02;;;;;;;14.27;9.70;;;1.90;99.90;;;;;;5024690;28;20732;-48